sensor_id;sensor_type;location;lat;lon;timestamp;P1;durP1;ratioP1;P2;durP2;ratioP2
33327;SDS011;19692;52.998;9.116;2023-04-01T00:00:17;10.13;;;6.17;;
33327;SDS011;19692;52.998;9.116;2023-04-01T00:02:44;7.60;;;6.23;;
33327;SDS011;19692;52.998;9.116;2023-04-01T00:05:10;13.50;;;6.43;;
33327;SDS011;19692;52.998;9.116;2023-04-01T00:07:37;8.33;;;6.17;;
33327;SDS011;19692;52.998;9.116;2023-04-01T00:10:06;9.47;;;6.37;;
33327;SDS011;19692;52.998;9.116;2023-04-01T00:12:33;9.90;;;6.37;;
33327;SDS011;19692;52.998;9.116;2023-04-01T00:15:00;10.57;;;7.20;;
33327;SDS011;19692;52.998;9.116;2023-04-01T00:17:26;9.80;;;6.57;;
33327;SDS011;19692;52.998;9.116;2023-04-01T00:19:54;9.37;;;6.50;;
33327;SDS011;19692;52.998;9.116;2023-04-01T00:22:21;10.93;;;7.50;;
33327;SDS011;19692;52.998;9.116;2023-04-01T00:24:47;9.07;;;6.93;;
33327;SDS011;19692;52.998;9.116;2023-04-01T00:27:13;10.87;;;7.30;;
33327;SDS011;19692;52.998;9.116;2023-04-01T00:29:43;11.00;;;7.83;;
33327;SDS011;19692;52.998;9.116;2023-04-01T00:32:10;9.60;;;7.17;;
33327;SDS011;19692;52.998;9.116;2023-04-01T00:34:36;8.50;;;7.07;;
33327;SDS011;19692;52.998;9.116;2023-04-01T00:37:02;10.57;;;7.63;;
33327;SDS011;19692;52.998;9.116;2023-04-01T00:39:29;11.90;;;7.00;;
33327;SDS011;19692;52.998;9.116;2023-04-01T00:41:56;9.37;;;7.00;;
33327;SDS011;19692;52.998;9.116;2023-04-01T00:44:29;11.83;;;7.20;;
33327;SDS011;19692;52.998;9.116;2023-04-01T00:46:58;10.30;;;6.90;;
33327;SDS011;19692;52.998;9.116;2023-04-01T00:49:27;10.33;;;7.27;;
33327;SDS011;19692;52.998;9.116;2023-04-01T00:52:06;7.70;;;6.80;;
33327;SDS011;19692;52.998;9.116;2023-04-01T00:54:36;11.60;;;7.10;;
33327;SDS011;19692;52.998;9.116;2023-04-01T00:57:05;10.20;;;6.87;;
33327;SDS011;19692;52.998;9.116;2023-04-01T00:59:40;10.33;;;6.77;;
33327;SDS011;19692;52.998;9.116;2023-04-01T01:02:10;8.33;;;7.07;;
33327;SDS011;19692;52.998;9.116;2023-04-01T01:04:37;8.03;;;6.70;;
33327;SDS011;19692;52.998;9.116;2023-04-01T01:13:00;9.97;;;7.27;;
33327;SDS011;19692;52.998;9.116;2023-04-01T01:24:13;12.07;;;7.00;;
33327;SDS011;19692;52.998;9.116;2023-04-01T01:29:34;10.97;;;7.13;;
33327;SDS011;19692;52.998;9.116;2023-04-01T01:38:18;11.27;;;6.67;;
33327;SDS011;19692;52.998;9.116;2023-04-01T01:40:52;8.83;;;7.50;;
33327;SDS011;19692;52.998;9.116;2023-04-01T01:43:25;9.20;;;7.33;;
33327;SDS011;19692;52.998;9.116;2023-04-01T01:45:58;10.00;;;7.77;;
33327;SDS011;19692;52.998;9.116;2023-04-01T01:48:29;9.37;;;7.60;;
33327;SDS011;19692;52.998;9.116;2023-04-01T01:50:58;11.23;;;8.37;;
33327;SDS011;19692;52.998;9.116;2023-04-01T01:53:25;13.57;;;8.43;;
33327;SDS011;19692;52.998;9.116;2023-04-01T01:55:51;9.03;;;7.33;;
33327;SDS011;19692;52.998;9.116;2023-04-01T01:58:33;9.30;;;7.80;;
33327;SDS011;19692;52.998;9.116;2023-04-01T02:01:09;11.77;;;7.43;;
33327;SDS011;19692;52.998;9.116;2023-04-01T02:03:42;10.47;;;7.83;;
33327;SDS011;19692;52.998;9.116;2023-04-01T02:06:11;10.17;;;7.10;;
33327;SDS011;19692;52.998;9.116;2023-04-01T02:08:50;10.33;;;8.00;;
33327;SDS011;19692;52.998;9.116;2023-04-01T02:11:23;8.30;;;7.43;;
33327;SDS011;19692;52.998;9.116;2023-04-01T02:13:56;12.00;;;8.07;;
33327;SDS011;19692;52.998;9.116;2023-04-01T02:16:29;9.13;;;7.40;;
33327;SDS011;19692;52.998;9.116;2023-04-01T02:19:10;11.83;;;7.40;;
33327;SDS011;19692;52.998;9.116;2023-04-01T02:21:38;10.93;;;7.23;;
33327;SDS011;19692;52.998;9.116;2023-04-01T02:24:08;10.10;;;8.50;;
33327;SDS011;19692;52.998;9.116;2023-04-01T02:26:38;10.27;;;7.10;;
33327;SDS011;19692;52.998;9.116;2023-04-01T02:29:05;7.60;;;6.77;;
33327;SDS011;19692;52.998;9.116;2023-04-01T02:31:32;9.47;;;7.17;;
33327;SDS011;19692;52.998;9.116;2023-04-01T02:33:59;10.93;;;7.37;;
33327;SDS011;19692;52.998;9.116;2023-04-01T02:36:25;8.47;;;6.90;;
33327;SDS011;19692;52.998;9.116;2023-04-01T02:38:51;9.23;;;7.80;;
33327;SDS011;19692;52.998;9.116;2023-04-01T02:41:19;10.90;;;7.37;;
33327;SDS011;19692;52.998;9.116;2023-04-01T02:43:46;8.20;;;7.23;;
33327;SDS011;19692;52.998;9.116;2023-04-01T02:46:11;8.43;;;6.60;;
33327;SDS011;19692;52.998;9.116;2023-04-01T02:48:37;8.93;;;6.80;;
33327;SDS011;19692;52.998;9.116;2023-04-01T02:51:03;8.97;;;7.17;;
33327;SDS011;19692;52.998;9.116;2023-04-01T02:53:29;8.80;;;6.80;;
33327;SDS011;19692;52.998;9.116;2023-04-01T02:55:55;9.27;;;6.90;;
33327;SDS011;19692;52.998;9.116;2023-04-01T02:58:21;10.07;;;7.03;;
33327;SDS011;19692;52.998;9.116;2023-04-01T03:00:46;7.40;;;6.67;;
33327;SDS011;19692;52.998;9.116;2023-04-01T03:03:12;8.70;;;6.77;;
33327;SDS011;19692;52.998;9.116;2023-04-01T03:05:39;8.70;;;7.80;;
33327;SDS011;19692;52.998;9.116;2023-04-01T03:08:05;10.13;;;6.50;;
33327;SDS011;19692;52.998;9.116;2023-04-01T03:10:31;8.37;;;6.73;;
33327;SDS011;19692;52.998;9.116;2023-04-01T03:12:59;9.47;;;7.10;;
33327;SDS011;19692;52.998;9.116;2023-04-01T03:15:25;8.37;;;7.23;;
33327;SDS011;19692;52.998;9.116;2023-04-01T03:17:51;8.03;;;7.10;;
33327;SDS011;19692;52.998;9.116;2023-04-01T03:20:16;9.53;;;6.90;;
33327;SDS011;19692;52.998;9.116;2023-04-01T03:22:42;12.30;;;7.33;;
33327;SDS011;19692;52.998;9.116;2023-04-01T03:25:08;8.87;;;7.13;;
33327;SDS011;19692;52.998;9.116;2023-04-01T03:27:34;8.30;;;7.10;;
33327;SDS011;19692;52.998;9.116;2023-04-01T03:30:01;8.60;;;7.43;;
33327;SDS011;19692;52.998;9.116;2023-04-01T03:32:31;9.40;;;7.20;;
33327;SDS011;19692;52.998;9.116;2023-04-01T03:34:57;9.47;;;7.80;;
33327;SDS011;19692;52.998;9.116;2023-04-01T03:37:23;10.00;;;7.27;;
33327;SDS011;19692;52.998;9.116;2023-04-01T03:39:50;8.07;;;7.27;;
33327;SDS011;19692;52.998;9.116;2023-04-01T03:42:16;8.00;;;7.20;;
33327;SDS011;19692;52.998;9.116;2023-04-01T03:44:41;7.67;;;6.80;;
33327;SDS011;19692;52.998;9.116;2023-04-01T03:47:07;8.20;;;6.90;;
33327;SDS011;19692;52.998;9.116;2023-04-01T03:49:34;7.73;;;6.13;;
33327;SDS011;19692;52.998;9.116;2023-04-01T03:52:00;7.73;;;6.93;;
33327;SDS011;19692;52.998;9.116;2023-04-01T03:54:25;6.63;;;5.83;;
33327;SDS011;19692;52.998;9.116;2023-04-01T03:56:51;9.37;;;6.50;;
33327;SDS011;19692;52.998;9.116;2023-04-01T03:59:17;7.50;;;6.03;;
33327;SDS011;19692;52.998;9.116;2023-04-01T04:01:43;7.43;;;5.57;;
33327;SDS011;19692;52.998;9.116;2023-04-01T04:04:11;8.07;;;5.77;;
33327;SDS011;19692;52.998;9.116;2023-04-01T04:06:40;8.30;;;5.50;;
33327;SDS011;19692;52.998;9.116;2023-04-01T04:09:06;6.77;;;5.20;;
33327;SDS011;19692;52.998;9.116;2023-04-01T04:11:31;8.77;;;5.33;;
33327;SDS011;19692;52.998;9.116;2023-04-01T04:13:59;5.30;;;4.50;;
33327;SDS011;19692;52.998;9.116;2023-04-01T04:16:25;8.60;;;4.60;;
33327;SDS011;19692;52.998;9.116;2023-04-01T04:18:51;5.90;;;4.67;;
33327;SDS011;19692;52.998;9.116;2023-04-01T04:21:17;6.63;;;4.87;;
33327;SDS011;19692;52.998;9.116;2023-04-01T04:23:43;7.77;;;5.23;;
33327;SDS011;19692;52.998;9.116;2023-04-01T04:26:10;6.87;;;4.63;;
33327;SDS011;19692;52.998;9.116;2023-04-01T04:28:38;7.50;;;5.27;;
33327;SDS011;19692;52.998;9.116;2023-04-01T04:31:04;6.20;;;4.60;;
33327;SDS011;19692;52.998;9.116;2023-04-01T04:33:31;7.00;;;4.57;;
33327;SDS011;19692;52.998;9.116;2023-04-01T04:35:58;7.00;;;4.17;;
33327;SDS011;19692;52.998;9.116;2023-04-01T04:38:25;6.37;;;5.70;;
33327;SDS011;19692;52.998;9.116;2023-04-01T04:40:51;6.87;;;4.47;;
33327;SDS011;19692;52.998;9.116;2023-04-01T04:43:18;6.43;;;4.17;;
33327;SDS011;19692;52.998;9.116;2023-04-01T04:45:44;7.30;;;4.27;;
33327;SDS011;19692;52.998;9.116;2023-04-01T04:48:10;7.10;;;4.80;;
33327;SDS011;19692;52.998;9.116;2023-04-01T04:50:41;4.50;;;4.10;;
33327;SDS011;19692;52.998;9.116;2023-04-01T04:53:11;6.83;;;4.47;;
33327;SDS011;19692;52.998;9.116;2023-04-01T04:55:37;7.90;;;4.07;;
33327;SDS011;19692;52.998;9.116;2023-04-01T04:58:12;6.00;;;4.33;;
33327;SDS011;19692;52.998;9.116;2023-04-01T05:00:38;5.07;;;4.07;;
33327;SDS011;19692;52.998;9.116;2023-04-01T05:03:04;6.70;;;4.33;;
33327;SDS011;19692;52.998;9.116;2023-04-01T05:05:30;4.97;;;3.83;;
33327;SDS011;19692;52.998;9.116;2023-04-01T05:07:55;7.73;;;3.90;;
33327;SDS011;19692;52.998;9.116;2023-04-01T05:10:21;4.87;;;4.13;;
33327;SDS011;19692;52.998;9.116;2023-04-01T05:12:47;7.30;;;4.30;;
33327;SDS011;19692;52.998;9.116;2023-04-01T05:15:12;6.43;;;4.40;;
33327;SDS011;19692;52.998;9.116;2023-04-01T05:17:39;4.50;;;4.10;;
33327;SDS011;19692;52.998;9.116;2023-04-01T05:20:05;6.30;;;4.40;;
33327;SDS011;19692;52.998;9.116;2023-04-01T05:22:31;5.33;;;4.20;;
33327;SDS011;19692;52.998;9.116;2023-04-01T05:24:57;5.47;;;4.97;;
33327;SDS011;19692;52.998;9.116;2023-04-01T05:27:23;6.40;;;4.40;;
33327;SDS011;19692;52.998;9.116;2023-04-01T05:29:49;6.20;;;3.90;;
33327;SDS011;19692;52.998;9.116;2023-04-01T05:32:15;4.63;;;4.10;;
33327;SDS011;19692;52.998;9.116;2023-04-01T05:34:41;4.10;;;3.70;;
33327;SDS011;19692;52.998;9.116;2023-04-01T05:37:07;4.33;;;3.83;;
33327;SDS011;19692;52.998;9.116;2023-04-01T05:39:39;5.13;;;3.70;;
33327;SDS011;19692;52.998;9.116;2023-04-01T05:42:05;4.40;;;3.80;;
33327;SDS011;19692;52.998;9.116;2023-04-01T05:44:32;3.70;;;3.40;;
33327;SDS011;19692;52.998;9.116;2023-04-01T05:46:59;6.73;;;4.10;;
33327;SDS011;19692;52.998;9.116;2023-04-01T05:49:25;5.00;;;3.53;;
33327;SDS011;19692;52.998;9.116;2023-04-01T05:51:50;4.23;;;3.77;;
33327;SDS011;19692;52.998;9.116;2023-04-01T05:54:16;4.30;;;3.57;;
33327;SDS011;19692;52.998;9.116;2023-04-01T05:56:43;5.03;;;3.60;;
33327;SDS011;19692;52.998;9.116;2023-04-01T05:59:10;3.63;;;3.20;;
33327;SDS011;19692;52.998;9.116;2023-04-01T06:01:36;4.20;;;3.57;;
33327;SDS011;19692;52.998;9.116;2023-04-01T06:04:02;5.20;;;3.30;;
33327;SDS011;19692;52.998;9.116;2023-04-01T06:06:28;5.30;;;4.27;;
33327;SDS011;19692;52.998;9.116;2023-04-01T06:09:04;4.90;;;3.40;;
33327;SDS011;19692;52.998;9.116;2023-04-01T06:11:52;4.43;;;3.13;;
33327;SDS011;19692;52.998;9.116;2023-04-01T06:17:56;3.87;;;3.20;;
33327;SDS011;19692;52.998;9.116;2023-04-01T06:20:56;4.00;;;3.60;;
33327;SDS011;19692;52.998;9.116;2023-04-01T06:23:58;5.60;;;3.30;;
33327;SDS011;19692;52.998;9.116;2023-04-01T06:32:15;5.30;;;4.80;;
33327;SDS011;19692;52.998;9.116;2023-04-01T06:38:05;3.90;;;2.80;;
33327;SDS011;19692;52.998;9.116;2023-04-01T06:46:27;3.97;;;3.00;;
33327;SDS011;19692;52.998;9.116;2023-04-01T06:49:28;3.07;;;2.70;;
33327;SDS011;19692;52.998;9.116;2023-04-01T06:52:19;3.97;;;3.03;;
33327;SDS011;19692;52.998;9.116;2023-04-01T06:55:21;4.43;;;3.27;;
33327;SDS011;19692;52.998;9.116;2023-04-01T06:57:45;3.87;;;2.60;;
33327;SDS011;19692;52.998;9.116;2023-04-01T07:00:20;3.97;;;3.10;;
33327;SDS011;19692;52.998;9.116;2023-04-01T07:03:05;3.63;;;3.30;;
33327;SDS011;19692;52.998;9.116;2023-04-01T07:05:40;3.13;;;2.70;;
33327;SDS011;19692;52.998;9.116;2023-04-01T07:08:11;4.40;;;3.53;;
33327;SDS011;19692;52.998;9.116;2023-04-01T07:10:50;3.97;;;3.40;;
33327;SDS011;19692;52.998;9.116;2023-04-01T07:13:34;4.23;;;3.60;;
33327;SDS011;19692;52.998;9.116;2023-04-01T07:18:57;5.47;;;3.43;;
33327;SDS011;19692;52.998;9.116;2023-04-01T07:24:05;4.20;;;3.70;;
33327;SDS011;19692;52.998;9.116;2023-04-01T07:26:42;6.00;;;3.30;;
33327;SDS011;19692;52.998;9.116;2023-04-01T07:29:09;5.63;;;4.63;;
33327;SDS011;19692;52.998;9.116;2023-04-01T07:34:17;5.83;;;4.10;;
33327;SDS011;19692;52.998;9.116;2023-04-01T07:37:00;3.87;;;2.53;;
33327;SDS011;19692;52.998;9.116;2023-04-01T07:40:13;8.17;;;3.20;;
33327;SDS011;19692;52.998;9.116;2023-04-01T07:49:04;3.37;;;2.37;;
33327;SDS011;19692;52.998;9.116;2023-04-01T07:52:00;4.67;;;2.60;;
33327;SDS011;19692;52.998;9.116;2023-04-01T07:57:22;3.70;;;2.63;;
33327;SDS011;19692;52.998;9.116;2023-04-01T08:02:53;2.87;;;2.57;;
33327;SDS011;19692;52.998;9.116;2023-04-01T08:05:37;4.37;;;2.83;;
33327;SDS011;19692;52.998;9.116;2023-04-01T08:08:23;2.73;;;2.40;;
33327;SDS011;19692;52.998;9.116;2023-04-01T08:20:18;4.20;;;2.67;;
33327;SDS011;19692;52.998;9.116;2023-04-01T08:23:28;3.03;;;2.73;;
33327;SDS011;19692;52.998;9.116;2023-04-01T08:26:10;4.17;;;3.77;;
33327;SDS011;19692;52.998;9.116;2023-04-01T08:29:10;4.03;;;2.80;;
33327;SDS011;19692;52.998;9.116;2023-04-01T08:32:03;3.13;;;2.70;;
33327;SDS011;19692;52.998;9.116;2023-04-01T08:35:08;3.23;;;2.93;;
33327;SDS011;19692;52.998;9.116;2023-04-01T08:37:52;3.27;;;2.50;;
33327;SDS011;19692;52.998;9.116;2023-04-01T08:40:46;3.60;;;2.80;;
33327;SDS011;19692;52.998;9.116;2023-04-01T08:52:33;3.20;;;2.80;;
33327;SDS011;19692;52.998;9.116;2023-04-01T09:01:13;3.27;;;2.50;;
33327;SDS011;19692;52.998;9.116;2023-04-01T09:04:16;2.70;;;2.50;;
33327;SDS011;19692;52.998;9.116;2023-04-01T09:13:11;2.43;;;2.00;;
33327;SDS011;19692;52.998;9.116;2023-04-01T09:18:58;2.40;;;2.20;;
33327;SDS011;19692;52.998;9.116;2023-04-01T09:21:46;4.60;;;2.50;;
33327;SDS011;19692;52.998;9.116;2023-04-01T09:27:55;3.20;;;2.93;;
33327;SDS011;19692;52.998;9.116;2023-04-01T09:33:39;2.90;;;2.63;;
33327;SDS011;19692;52.998;9.116;2023-04-01T09:36:46;3.93;;;2.60;;
33327;SDS011;19692;52.998;9.116;2023-04-01T09:39:34;2.67;;;2.47;;
33327;SDS011;19692;52.998;9.116;2023-04-01T10:01:01;2.40;;;2.00;;
33327;SDS011;19692;52.998;9.116;2023-04-01T10:07:24;2.53;;;1.73;;
33327;SDS011;19692;52.998;9.116;2023-04-01T10:10:19;3.50;;;2.47;;
33327;SDS011;19692;52.998;9.116;2023-04-01T10:31:32;1.60;;;1.50;;
33327;SDS011;19692;52.998;9.116;2023-04-01T10:34:15;1.00;;;1.00;;
33327;SDS011;19692;52.998;9.116;2023-04-01T10:46:31;1.20;;;1.10;;
33327;SDS011;19692;52.998;9.116;2023-04-01T10:50:04;1.40;;;1.30;;
33327;SDS011;19692;52.998;9.116;2023-04-01T11:07:49;1.00;;;1.00;;
33327;SDS011;19692;52.998;9.116;2023-04-01T11:26:07;1.50;;;1.40;;
33327;SDS011;19692;52.998;9.116;2023-04-01T11:37:35;1.50;;;1.40;;
33327;SDS011;19692;52.998;9.116;2023-04-01T11:43:37;1.50;;;1.40;;
33327;SDS011;19692;52.998;9.116;2023-04-01T11:49:11;1.63;;;1.40;;
33327;SDS011;19692;52.998;9.116;2023-04-01T11:55:22;3.27;;;1.93;;
33327;SDS011;19692;52.998;9.116;2023-04-01T11:58:18;4.80;;;1.70;;
33327;SDS011;19692;52.998;9.116;2023-04-01T12:01:25;3.20;;;1.77;;
33327;SDS011;19692;52.998;9.116;2023-04-01T12:07:27;1.50;;;1.40;;
33327;SDS011;19692;52.998;9.116;2023-04-01T12:10:21;1.40;;;1.30;;
33327;SDS011;19692;52.998;9.116;2023-04-01T12:13:22;1.40;;;1.30;;
33327;SDS011;19692;52.998;9.116;2023-04-01T12:18:49;2.80;;;1.80;;
33327;SDS011;19692;52.998;9.116;2023-04-01T12:21:25;1.63;;;1.53;;
33327;SDS011;19692;52.998;9.116;2023-04-01T12:36:26;1.70;;;1.60;;
33327;SDS011;19692;52.998;9.116;2023-04-01T12:50:55;1.70;;;1.60;;
33327;SDS011;19692;52.998;9.116;2023-04-01T12:54:04;2.93;;;2.63;;
33327;SDS011;19692;52.998;9.116;2023-04-01T12:56:59;1.73;;;1.63;;
33327;SDS011;19692;52.998;9.116;2023-04-01T13:03:15;1.50;;;1.40;;
33327;SDS011;19692;52.998;9.116;2023-04-01T13:06:48;1.60;;;1.50;;
33327;SDS011;19692;52.998;9.116;2023-04-01T13:12:24;1.40;;;1.30;;
33327;SDS011;19692;52.998;9.116;2023-04-01T13:15:25;1.40;;;1.30;;
33327;SDS011;19692;52.998;9.116;2023-04-01T13:24:25;1.50;;;1.40;;
33327;SDS011;19692;52.998;9.116;2023-04-01T13:32:44;1.60;;;1.50;;
33327;SDS011;19692;52.998;9.116;2023-04-01T13:39:44;1.57;;;1.47;;
33327;SDS011;19692;52.998;9.116;2023-04-01T13:42:06;1.77;;;1.67;;
33327;SDS011;19692;52.998;9.116;2023-04-01T13:44:56;1.67;;;1.57;;
33327;SDS011;19692;52.998;9.116;2023-04-01T13:51:24;1.67;;;1.57;;
33327;SDS011;19692;52.998;9.116;2023-04-01T14:02:55;1.60;;;1.50;;
33327;SDS011;19692;52.998;9.116;2023-04-01T14:23:01;1.57;;;1.47;;
33327;SDS011;19692;52.998;9.116;2023-04-01T14:31:34;1.90;;;1.60;;
33327;SDS011;19692;52.998;9.116;2023-04-01T14:37:25;3.13;;;2.93;;
33327;SDS011;19692;52.998;9.116;2023-04-01T14:43:16;2.20;;;2.00;;
33327;SDS011;19692;52.998;9.116;2023-04-01T14:51:23;2.20;;;2.00;;
33327;SDS011;19692;52.998;9.116;2023-04-01T14:56:49;2.30;;;2.10;;
33327;SDS011;19692;52.998;9.116;2023-04-01T14:59:27;2.20;;;2.00;;
33327;SDS011;19692;52.998;9.116;2023-04-01T15:02:02;2.40;;;2.20;;
33327;SDS011;19692;52.998;9.116;2023-04-01T15:13:13;2.87;;;2.60;;
33327;SDS011;19692;52.998;9.116;2023-04-01T15:15:57;2.67;;;2.47;;
33327;SDS011;19692;52.998;9.116;2023-04-01T15:19:29;3.17;;;2.73;;
33327;SDS011;19692;52.998;9.116;2023-04-01T15:25:00;2.20;;;2.00;;
33327;SDS011;19692;52.998;9.116;2023-04-01T15:37:11;2.70;;;2.50;;
33327;SDS011;19692;52.998;9.116;2023-04-01T15:40:08;2.00;;;1.90;;
33327;SDS011;19692;52.998;9.116;2023-04-01T15:51:43;2.50;;;2.30;;
33327;SDS011;19692;52.998;9.116;2023-04-01T15:57:28;2.87;;;2.10;;
33327;SDS011;19692;52.998;9.116;2023-04-01T16:00:13;2.77;;;2.47;;
33327;SDS011;19692;52.998;9.116;2023-04-01T16:03:14;2.97;;;2.47;;
33327;SDS011;19692;52.998;9.116;2023-04-01T16:05:56;2.30;;;2.10;;
33327;SDS011;19692;52.998;9.116;2023-04-01T16:11:14;2.80;;;2.50;;
33327;SDS011;19692;52.998;9.116;2023-04-01T16:17:00;3.83;;;2.60;;
33327;SDS011;19692;52.998;9.116;2023-04-01T16:19:45;2.20;;;2.00;;
33327;SDS011;19692;52.998;9.116;2023-04-01T16:22:23;3.60;;;2.60;;
33327;SDS011;19692;52.998;9.116;2023-04-01T16:25:05;2.57;;;2.37;;
33327;SDS011;19692;52.998;9.116;2023-04-01T16:33:39;3.40;;;2.50;;
33327;SDS011;19692;52.998;9.116;2023-04-01T16:39:12;3.87;;;2.90;;
33327;SDS011;19692;52.998;9.116;2023-04-01T16:41:49;6.27;;;4.43;;
33327;SDS011;19692;52.998;9.116;2023-04-01T16:47:32;4.13;;;3.20;;
33327;SDS011;19692;52.998;9.116;2023-04-01T16:50:06;2.80;;;2.60;;
33327;SDS011;19692;52.998;9.116;2023-04-01T16:52:48;3.00;;;2.70;;
33327;SDS011;19692;52.998;9.116;2023-04-01T16:58:26;3.40;;;3.10;;
33327;SDS011;19692;52.998;9.116;2023-04-01T17:01:12;3.47;;;3.17;;
33327;SDS011;19692;52.998;9.116;2023-04-01T17:03:46;4.57;;;2.80;;
33327;SDS011;19692;52.998;9.116;2023-04-01T17:09:33;3.43;;;3.13;;
33327;SDS011;19692;52.998;9.116;2023-04-01T17:17:58;5.00;;;4.60;;
33327;SDS011;19692;52.998;9.116;2023-04-01T17:23:38;4.10;;;3.00;;
33327;SDS011;19692;52.998;9.116;2023-04-01T17:26:20;3.50;;;3.17;;
33327;SDS011;19692;52.998;9.116;2023-04-01T17:29:33;3.83;;;3.17;;
33327;SDS011;19692;52.998;9.116;2023-04-01T17:35:09;3.70;;;3.17;;
33327;SDS011;19692;52.998;9.116;2023-04-01T17:38:03;4.53;;;3.70;;
33327;SDS011;19692;52.998;9.116;2023-04-01T17:41:01;6.03;;;3.90;;
33327;SDS011;19692;52.998;9.116;2023-04-01T17:52:06;4.17;;;3.60;;
33327;SDS011;19692;52.998;9.116;2023-04-01T17:55:20;4.90;;;4.13;;
33327;SDS011;19692;52.998;9.116;2023-04-01T17:58:18;4.50;;;3.80;;
33327;SDS011;19692;52.998;9.116;2023-04-01T18:04:11;6.37;;;4.53;;
33327;SDS011;19692;52.998;9.116;2023-04-01T18:07:02;6.40;;;4.73;;
33327;SDS011;19692;52.998;9.116;2023-04-01T18:12:36;6.93;;;4.90;;
33327;SDS011;19692;52.998;9.116;2023-04-01T18:15:32;5.87;;;4.77;;
33327;SDS011;19692;52.998;9.116;2023-04-01T18:18:59;4.90;;;4.40;;
33327;SDS011;19692;52.998;9.116;2023-04-01T18:25:16;6.87;;;6.27;;
33327;SDS011;19692;52.998;9.116;2023-04-01T18:28:11;5.67;;;4.80;;
33327;SDS011;19692;52.998;9.116;2023-04-01T18:36:22;9.53;;;5.57;;
33327;SDS011;19692;52.998;9.116;2023-04-01T18:39:30;8.40;;;5.47;;
33327;SDS011;19692;52.998;9.116;2023-04-01T18:45:01;8.10;;;5.33;;
33327;SDS011;19692;52.998;9.116;2023-04-01T18:47:48;6.30;;;4.90;;
33327;SDS011;19692;52.998;9.116;2023-04-01T18:50:53;7.60;;;6.60;;
33327;SDS011;19692;52.998;9.116;2023-04-01T18:53:29;9.80;;;5.13;;
33327;SDS011;19692;52.998;9.116;2023-04-01T19:10:12;8.60;;;5.03;;
33327;SDS011;19692;52.998;9.116;2023-04-01T19:16:03;8.17;;;5.47;;
33327;SDS011;19692;52.998;9.116;2023-04-01T19:27:35;7.17;;;5.47;;
33327;SDS011;19692;52.998;9.116;2023-04-01T19:32:55;7.13;;;5.33;;
33327;SDS011;19692;52.998;9.116;2023-04-01T19:38:28;9.60;;;4.97;;
33327;SDS011;19692;52.998;9.116;2023-04-01T19:41:06;6.90;;;5.33;;
33327;SDS011;19692;52.998;9.116;2023-04-01T19:52:17;7.67;;;5.23;;
33327;SDS011;19692;52.998;9.116;2023-04-01T19:55:03;7.07;;;5.90;;
33327;SDS011;19692;52.998;9.116;2023-04-01T20:00:47;10.13;;;6.03;;
33327;SDS011;19692;52.998;9.116;2023-04-01T20:14:45;9.03;;;7.37;;
33327;SDS011;19692;52.998;9.116;2023-04-01T20:17:45;11.97;;;7.47;;
33327;SDS011;19692;52.998;9.116;2023-04-01T20:25:48;11.00;;;7.40;;
33327;SDS011;19692;52.998;9.116;2023-04-01T20:28:32;12.63;;;8.23;;
33327;SDS011;19692;52.998;9.116;2023-04-01T20:31:30;11.10;;;8.10;;
33327;SDS011;19692;52.998;9.116;2023-04-01T20:46:37;10.43;;;7.27;;
33327;SDS011;19692;52.998;9.116;2023-04-01T20:49:41;9.63;;;6.87;;
33327;SDS011;19692;52.998;9.116;2023-04-01T20:52:41;12.07;;;7.00;;
33327;SDS011;19692;52.998;9.116;2023-04-01T20:55:21;8.20;;;6.00;;
33327;SDS011;19692;52.998;9.116;2023-04-01T20:58:19;8.80;;;6.03;;
33327;SDS011;19692;52.998;9.116;2023-04-01T21:04:26;10.67;;;6.77;;
33327;SDS011;19692;52.998;9.116;2023-04-01T21:12:49;9.70;;;7.00;;
33327;SDS011;19692;52.998;9.116;2023-04-01T21:18:38;10.47;;;6.93;;
33327;SDS011;19692;52.998;9.116;2023-04-01T21:24:48;9.90;;;6.37;;
33327;SDS011;19692;52.998;9.116;2023-04-01T21:39:26;7.40;;;5.10;;
33327;SDS011;19692;52.998;9.116;2023-04-01T21:42:25;9.77;;;6.27;;
33327;SDS011;19692;52.998;9.116;2023-04-01T21:45:19;8.23;;;5.53;;
33327;SDS011;19692;52.998;9.116;2023-04-01T21:57:11;7.90;;;6.30;;
33327;SDS011;19692;52.998;9.116;2023-04-01T22:06:00;8.67;;;5.30;;
33327;SDS011;19692;52.998;9.116;2023-04-01T22:11:31;6.40;;;4.40;;
33327;SDS011;19692;52.998;9.116;2023-04-01T22:14:20;7.90;;;4.87;;
33327;SDS011;19692;52.998;9.116;2023-04-01T22:19:48;7.13;;;4.63;;
33327;SDS011;19692;52.998;9.116;2023-04-01T22:25:45;5.77;;;3.90;;
33327;SDS011;19692;52.998;9.116;2023-04-01T22:28:51;6.40;;;4.10;;
33327;SDS011;19692;52.998;9.116;2023-04-01T22:31:28;9.27;;;4.60;;
33327;SDS011;19692;52.998;9.116;2023-04-01T22:34:14;5.33;;;3.83;;
33327;SDS011;19692;52.998;9.116;2023-04-01T22:37:04;8.20;;;4.17;;
33327;SDS011;19692;52.998;9.116;2023-04-01T22:42:43;8.93;;;4.40;;
33327;SDS011;19692;52.998;9.116;2023-04-01T22:56:21;7.13;;;4.07;;
33327;SDS011;19692;52.998;9.116;2023-04-01T22:59:00;7.97;;;4.63;;
33327;SDS011;19692;52.998;9.116;2023-04-01T23:01:41;5.30;;;3.47;;
33327;SDS011;19692;52.998;9.116;2023-04-01T23:04:15;6.03;;;3.30;;
33327;SDS011;19692;52.998;9.116;2023-04-01T23:06:50;6.40;;;3.63;;
33327;SDS011;19692;52.998;9.116;2023-04-01T23:09:23;6.30;;;2.93;;
33327;SDS011;19692;52.998;9.116;2023-04-01T23:11:53;6.07;;;3.37;;
33327;SDS011;19692;52.998;9.116;2023-04-01T23:14:30;6.93;;;2.77;;
33327;SDS011;19692;52.998;9.116;2023-04-01T23:20:49;5.67;;;2.77;;
33327;SDS011;19692;52.998;9.116;2023-04-01T23:24:00;5.77;;;2.97;;
33327;SDS011;19692;52.998;9.116;2023-04-01T23:26:50;5.07;;;2.50;;
33327;SDS011;19692;52.998;9.116;2023-04-01T23:29:21;6.43;;;4.30;;
33327;SDS011;19692;52.998;9.116;2023-04-01T23:31:49;4.60;;;2.43;;
33327;SDS011;19692;52.998;9.116;2023-04-01T23:37:07;8.60;;;2.80;;
33327;SDS011;19692;52.998;9.116;2023-04-01T23:39:51;6.83;;;3.70;;
33327;SDS011;19692;52.998;9.116;2023-04-01T23:42:26;4.37;;;2.33;;
33327;SDS011;19692;52.998;9.116;2023-04-01T23:45:14;5.90;;;2.63;;
33327;SDS011;19692;52.998;9.116;2023-04-01T23:47:45;4.37;;;2.00;;
33327;SDS011;19692;52.998;9.116;2023-04-01T23:50:18;6.07;;;2.30;;
33327;SDS011;19692;52.998;9.116;2023-04-01T23:52:52;5.80;;;2.03;;
33327;SDS011;19692;52.998;9.116;2023-04-01T23:55:41;5.47;;;2.23;;
